sensor_id;sensor_type;location;lat;lon;timestamp;temperature;humidity
22984;DHT22;11658;48.908;9.140;2024-02-14T05:00:42;6.30;99.90
22984;DHT22;11658;48.908;9.140;2024-02-14T05:03:07;6.40;99.90
22984;DHT22;11658;48.908;9.140;2024-02-14T05:05:35;6.40;99.90
22984;DHT22;11658;48.908;9.140;2024-02-14T05:08:01;6.40;99.90
22984;DHT22;11658;48.908;9.140;2024-02-14T05:10:28;6.40;99.90
22984;DHT22;11658;48.908;9.140;2024-02-14T05:12:54;6.40;99.90
22984;DHT22;11658;48.908;9.140;2024-02-14T05:15:20;6.40;99.90
22984;DHT22;11658;48.908;9.140;2024-02-14T05:17:45;6.40;99.90
22984;DHT22;11658;48.908;9.140;2024-02-14T05:20:12;6.40;99.90
22984;DHT22;11658;48.908;9.140;2024-02-14T05:22:38;6.50;99.90
22984;DHT22;11658;48.908;9.140;2024-02-14T05:25:04;6.50;99.90
22984;DHT22;11658;48.908;9.140;2024-02-14T05:27:33;6.50;99.90
22984;DHT22;11658;48.908;9.140;2024-02-14T05:29:59;6.50;99.90
22984;DHT22;11658;48.908;9.140;2024-02-14T05:32:24;6.60;99.90
22984;DHT22;11658;48.908;9.140;2024-02-14T05:34:51;6.60;99.90
22984;DHT22;11658;48.908;9.140;2024-02-14T05:37:16;6.60;99.90
22984;DHT22;11658;48.908;9.140;2024-02-14T05:39:42;6.60;99.90
22984;DHT22;11658;48.908;9.140;2024-02-14T05:42:08;6.60;99.90
22984;DHT22;11658;48.908;9.140;2024-02-14T05:44:34;6.60;99.90
22984;DHT22;11658;48.908;9.140;2024-02-14T05:46:59;6.60;99.90
22984;DHT22;11658;48.908;9.140;2024-02-14T05:49:25;6.60;99.90
22984;DHT22;11658;48.908;9.140;2024-02-14T05:51:51;6.60;99.90
22984;DHT22;11658;48.908;9.140;2024-02-14T05:54:18;6.70;99.90
22984;DHT22;11658;48.908;9.140;2024-02-14T05:56:44;6.70;99.90
22984;DHT22;11658;48.908;9.140;2024-02-14T05:59:10;6.70;99.90
22984;DHT22;11658;48.908;9.140;2024-02-14T06:01:35;6.70;99.90
22984;DHT22;11658;48.908;9.140;2024-02-14T06:04:01;6.60;99.90
22984;DHT22;11658;48.908;9.140;2024-02-14T06:06:27;6.60;99.90
22984;DHT22;11658;48.908;9.140;2024-02-14T06:08:52;6.70;99.90
22984;DHT22;11658;48.908;9.140;2024-02-14T06:11:18;6.60;99.90
22984;DHT22;11658;48.908;9.140;2024-02-14T06:13:47;6.60;99.90
22984;DHT22;11658;48.908;9.140;2024-02-14T06:16:13;6.60;99.90
22984;DHT22;11658;48.908;9.140;2024-02-14T06:18:38;6.60;99.90
22984;DHT22;11658;48.908;9.140;2024-02-14T06:21:05;6.50;99.90
22984;DHT22;11658;48.908;9.140;2024-02-14T06:23:31;6.30;99.90
22984;DHT22;11658;48.908;9.140;2024-02-14T06:25:57;6.20;99.90
22984;DHT22;11658;48.908;9.140;2024-02-14T06:28:23;6.10;99.90
22984;DHT22;11658;48.908;9.140;2024-02-14T06:30:48;6.00;99.90
22984;DHT22;11658;48.908;9.140;2024-02-14T06:33:14;6.00;99.90
22984;DHT22;11658;48.908;9.140;2024-02-14T06:35:40;6.00;99.90
22984;DHT22;11658;48.908;9.140;2024-02-14T06:38:05;6.00;99.90
22984;DHT22;11658;48.908;9.140;2024-02-14T06:40:32;6.10;99.90
22984;DHT22;11658;48.908;9.140;2024-02-14T06:42:58;6.00;99.90
22984;DHT22;11658;48.908;9.140;2024-02-14T06:45:25;6.00;99.90
22984;DHT22;11658;48.908;9.140;2024-02-14T06:47:51;5.90;99.90
22984;DHT22;11658;48.908;9.140;2024-02-14T06:50:16;6.00;99.90
22984;DHT22;11658;48.908;9.140;2024-02-14T06:52:42;6.00;99.90
22984;DHT22;11658;48.908;9.140;2024-02-14T06:55:08;6.00;99.90
22984;DHT22;11658;48.908;9.140;2024-02-14T06:57:33;6.00;99.90
22984;DHT22;11658;48.908;9.140;2024-02-14T06:59:59;6.10;99.90
22984;DHT22;11658;48.908;9.140;2024-02-14T07:02:25;6.00;99.90
22984;DHT22;11658;48.908;9.140;2024-02-14T07:04:53;6.10;99.90
22984;DHT22;11658;48.908;9.140;2024-02-14T07:07:19;6.20;99.90
22984;DHT22;11658;48.908;9.140;2024-02-14T07:09:45;6.30;99.90
22984;DHT22;11658;48.908;9.140;2024-02-14T07:12:11;6.30;99.90
22984;DHT22;11658;48.908;9.140;2024-02-14T07:14:36;6.30;99.90
22984;DHT22;11658;48.908;9.140;2024-02-14T07:17:02;6.40;99.90
22984;DHT22;11658;48.908;9.140;2024-02-14T07:19:28;6.30;99.90
22984;DHT22;11658;48.908;9.140;2024-02-14T07:21:54;6.20;99.90
22984;DHT22;11658;48.908;9.140;2024-02-14T07:24:19;6.10;99.90
22984;DHT22;11658;48.908;9.140;2024-02-14T07:26:45;6.20;99.90
22984;DHT22;11658;48.908;9.140;2024-02-14T07:29:11;6.40;99.90
22984;DHT22;11658;48.908;9.140;2024-02-14T07:31:37;6.50;99.90
22984;DHT22;11658;48.908;9.140;2024-02-14T07:34:02;6.70;99.90
22984;DHT22;11658;48.908;9.140;2024-02-14T07:36:29;6.90;99.90
22984;DHT22;11658;48.908;9.140;2024-02-14T07:38:55;7.10;99.90
22984;DHT22;11658;48.908;9.140;2024-02-14T07:41:20;7.30;99.90
22984;DHT22;11658;48.908;9.140;2024-02-14T07:43:46;7.40;99.90
22984;DHT22;11658;48.908;9.140;2024-02-14T07:46:17;7.30;99.90
22984;DHT22;11658;48.908;9.140;2024-02-14T07:48:42;7.30;99.90
22984;DHT22;11658;48.908;9.140;2024-02-14T07:51:08;7.40;99.90
22984;DHT22;11658;48.908;9.140;2024-02-14T07:53:34;7.50;99.90
22984;DHT22;11658;48.908;9.140;2024-02-14T07:55:59;7.60;99.90
22984;DHT22;11658;48.908;9.140;2024-02-14T07:58:25;7.70;99.90
22984;DHT22;11658;48.908;9.140;2024-02-14T08:00:50;7.70;99.90
22984;DHT22;11658;48.908;9.140;2024-02-14T08:03:16;7.60;99.90
22984;DHT22;11658;48.908;9.140;2024-02-14T08:05:42;7.50;99.90
22984;DHT22;11658;48.908;9.140;2024-02-14T08:08:08;7.50;99.90
22984;DHT22;11658;48.908;9.140;2024-02-14T08:10:33;7.40;99.90
22984;DHT22;11658;48.908;9.140;2024-02-14T08:12:59;7.40;99.90
22984;DHT22;11658;48.908;9.140;2024-02-14T08:15:24;7.50;99.90
22984;DHT22;11658;48.908;9.140;2024-02-14T08:17:50;7.50;99.90
22984;DHT22;11658;48.908;9.140;2024-02-14T08:20:15;7.50;99.90
22984;DHT22;11658;48.908;9.140;2024-02-14T08:22:43;7.50;99.90
22984;DHT22;11658;48.908;9.140;2024-02-14T08:25:08;7.50;99.90
22984;DHT22;11658;48.908;9.140;2024-02-14T08:27:34;7.60;99.90
22984;DHT22;11658;48.908;9.140;2024-02-14T08:29:59;7.60;99.90
22984;DHT22;11658;48.908;9.140;2024-02-14T08:32:25;7.60;99.90
22984;DHT22;11658;48.908;9.140;2024-02-14T08:34:51;7.70;99.90
22984;DHT22;11658;48.908;9.140;2024-02-14T08:37:16;7.70;99.90
22984;DHT22;11658;48.908;9.140;2024-02-14T08:39:42;7.80;99.90
22984;DHT22;11658;48.908;9.140;2024-02-14T08:42:07;7.80;99.90
22984;DHT22;11658;48.908;9.140;2024-02-14T08:44:34;7.90;99.90
22984;DHT22;11658;48.908;9.140;2024-02-14T08:47:00;7.90;99.90
22984;DHT22;11658;48.908;9.140;2024-02-14T08:49:26;8.00;99.90
22984;DHT22;11658;48.908;9.140;2024-02-14T08:51:51;8.00;99.90
22984;DHT22;11658;48.908;9.140;2024-02-14T08:54:17;8.10;99.90
22984;DHT22;11658;48.908;9.140;2024-02-14T08:56:43;8.10;99.90
22984;DHT22;11658;48.908;9.140;2024-02-14T08:59:08;8.20;99.90
22984;DHT22;11658;48.908;9.140;2024-02-14T09:01:34;8.20;99.90
22984;DHT22;11658;48.908;9.140;2024-02-14T09:04:01;8.30;99.90
22984;DHT22;11658;48.908;9.140;2024-02-14T09:06:27;8.30;99.90
22984;DHT22;11658;48.908;9.140;2024-02-14T09:08:52;8.40;99.90
22984;DHT22;11658;48.908;9.140;2024-02-14T09:11:19;8.50;99.90
22984;DHT22;11658;48.908;9.140;2024-02-14T09:13:45;8.50;99.90
22984;DHT22;11658;48.908;9.140;2024-02-14T09:16:13;8.60;99.90
22984;DHT22;11658;48.908;9.140;2024-02-14T09:18:40;8.80;99.90
22984;DHT22;11658;48.908;9.140;2024-02-14T09:21:06;9.00;99.90
22984;DHT22;11658;48.908;9.140;2024-02-14T09:23:32;9.00;99.90
22984;DHT22;11658;48.908;9.140;2024-02-14T09:25:58;9.20;99.90
22984;DHT22;11658;48.908;9.140;2024-02-14T09:28:24;9.30;99.90
22984;DHT22;11658;48.908;9.140;2024-02-14T09:30:50;9.30;99.90
22984;DHT22;11658;48.908;9.140;2024-02-14T09:33:16;9.50;99.90
22984;DHT22;11658;48.908;9.140;2024-02-14T09:35:42;9.60;99.90
22984;DHT22;11658;48.908;9.140;2024-02-14T09:38:11;9.60;99.90
22984;DHT22;11658;48.908;9.140;2024-02-14T09:40:41;9.90;99.90
22984;DHT22;11658;48.908;9.140;2024-02-14T09:45:44;9.90;99.90
22984;DHT22;11658;48.908;9.140;2024-02-14T09:48:10;9.90;99.90
22984;DHT22;11658;48.908;9.140;2024-02-14T09:50:38;10.10;99.90
22984;DHT22;11658;48.908;9.140;2024-02-14T09:53:04;10.20;99.90
22984;DHT22;11658;48.908;9.140;2024-02-14T09:55:30;10.20;99.90
22984;DHT22;11658;48.908;9.140;2024-02-14T09:57:56;10.30;99.90
22984;DHT22;11658;48.908;9.140;2024-02-14T10:00:23;10.40;99.90
22984;DHT22;11658;48.908;9.140;2024-02-14T10:02:49;10.50;99.90
22984;DHT22;11658;48.908;9.140;2024-02-14T10:05:15;10.50;99.90
22984;DHT22;11658;48.908;9.140;2024-02-14T10:07:42;10.70;99.90
22984;DHT22;11658;48.908;9.140;2024-02-14T10:10:08;10.90;99.90
22984;DHT22;11658;48.908;9.140;2024-02-14T10:12:34;10.90;99.90
22984;DHT22;11658;48.908;9.140;2024-02-14T10:14:59;10.90;99.90
22984;DHT22;11658;48.908;9.140;2024-02-14T10:17:28;11.00;99.90
22984;DHT22;11658;48.908;9.140;2024-02-14T10:20:01;11.00;99.90
22984;DHT22;11658;48.908;9.140;2024-02-14T10:22:38;11.00;99.90
22984;DHT22;11658;48.908;9.140;2024-02-14T10:25:05;11.00;99.90
22984;DHT22;11658;48.908;9.140;2024-02-14T10:27:37;11.00;99.90
22984;DHT22;11658;48.908;9.140;2024-02-14T10:30:05;11.20;99.90
22984;DHT22;11658;48.908;9.140;2024-02-14T10:32:34;11.60;99.90
22984;DHT22;11658;48.908;9.140;2024-02-14T10:35:00;11.70;99.90
22984;DHT22;11658;48.908;9.140;2024-02-14T10:37:30;11.80;99.90
22984;DHT22;11658;48.908;9.140;2024-02-14T10:39:56;11.70;99.90
22984;DHT22;11658;48.908;9.140;2024-02-14T10:42:25;11.80;99.90
22984;DHT22;11658;48.908;9.140;2024-02-14T10:44:50;11.90;99.90
22984;DHT22;11658;48.908;9.140;2024-02-14T10:47:19;12.00;99.90
22984;DHT22;11658;48.908;9.140;2024-02-14T10:49:49;11.90;99.90
22984;DHT22;11658;48.908;9.140;2024-02-14T10:52:18;11.80;99.90
22984;DHT22;11658;48.908;9.140;2024-02-14T10:54:52;12.10;99.90
22984;DHT22;11658;48.908;9.140;2024-02-14T10:57:24;12.20;99.90
22984;DHT22;11658;48.908;9.140;2024-02-14T10:59:50;12.10;99.90
22984;DHT22;11658;48.908;9.140;2024-02-14T11:02:17;12.40;99.90
22984;DHT22;11658;48.908;9.140;2024-02-14T11:04:45;12.20;99.90
22984;DHT22;11658;48.908;9.140;2024-02-14T11:07:11;12.20;99.90
22984;DHT22;11658;48.908;9.140;2024-02-14T11:09:37;12.00;99.90
22984;DHT22;11658;48.908;9.140;2024-02-14T11:12:06;12.00;99.90
22984;DHT22;11658;48.908;9.140;2024-02-14T11:14:32;11.90;99.90
22984;DHT22;11658;48.908;9.140;2024-02-14T11:17:03;11.90;99.90
22984;DHT22;11658;48.908;9.140;2024-02-14T11:19:32;11.80;99.90
22984;DHT22;11658;48.908;9.140;2024-02-14T11:24:38;11.70;99.90
22984;DHT22;11658;48.908;9.140;2024-02-14T11:27:12;11.90;99.90
22984;DHT22;11658;48.908;9.140;2024-02-14T11:29:50;11.90;99.90
22984;DHT22;11658;48.908;9.140;2024-02-14T11:32:17;11.80;99.90
22984;DHT22;11658;48.908;9.140;2024-02-14T11:34:43;11.60;99.90
22984;DHT22;11658;48.908;9.140;2024-02-14T11:37:09;11.70;99.90
22984;DHT22;11658;48.908;9.140;2024-02-14T11:39:35;11.70;99.90
22984;DHT22;11658;48.908;9.140;2024-02-14T11:42:00;11.70;99.90
22984;DHT22;11658;48.908;9.140;2024-02-14T11:44:26;11.70;99.90
22984;DHT22;11658;48.908;9.140;2024-02-14T11:46:52;11.60;99.90
22984;DHT22;11658;48.908;9.140;2024-02-14T11:49:18;11.70;99.90
22984;DHT22;11658;48.908;9.140;2024-02-14T11:51:44;11.80;99.90
22984;DHT22;11658;48.908;9.140;2024-02-14T11:54:09;11.80;99.90
22984;DHT22;11658;48.908;9.140;2024-02-14T11:56:37;11.60;99.90
22984;DHT22;11658;48.908;9.140;2024-02-14T11:59:04;11.50;99.90
22984;DHT22;11658;48.908;9.140;2024-02-14T12:01:34;11.70;99.90
22984;DHT22;11658;48.908;9.140;2024-02-14T12:04:01;11.70;99.90
22984;DHT22;11658;48.908;9.140;2024-02-14T12:06:29;11.80;99.90
22984;DHT22;11658;48.908;9.140;2024-02-14T12:08:57;12.00;99.90
22984;DHT22;11658;48.908;9.140;2024-02-14T12:11:27;12.10;99.90
22984;DHT22;11658;48.908;9.140;2024-02-14T12:13:53;12.00;99.90
22984;DHT22;11658;48.908;9.140;2024-02-14T12:16:22;11.90;99.90
22984;DHT22;11658;48.908;9.140;2024-02-14T12:18:48;12.20;99.90
22984;DHT22;11658;48.908;9.140;2024-02-14T12:21:13;12.50;99.90
22984;DHT22;11658;48.908;9.140;2024-02-14T12:23:39;12.90;99.90
22984;DHT22;11658;48.908;9.140;2024-02-14T12:26:05;13.40;99.90
22984;DHT22;11658;48.908;9.140;2024-02-14T12:28:31;13.30;99.90
22984;DHT22;11658;48.908;9.140;2024-02-14T12:30:57;13.00;99.90
22984;DHT22;11658;48.908;9.140;2024-02-14T12:33:24;13.20;99.90
22984;DHT22;11658;48.908;9.140;2024-02-14T12:35:51;13.40;99.90
22984;DHT22;11658;48.908;9.140;2024-02-14T12:38:19;13.10;99.90
22984;DHT22;11658;48.908;9.140;2024-02-14T12:40:45;13.10;99.90
22984;DHT22;11658;48.908;9.140;2024-02-14T12:43:13;13.40;99.90
22984;DHT22;11658;48.908;9.140;2024-02-14T12:45:39;13.80;99.90
22984;DHT22;11658;48.908;9.140;2024-02-14T12:48:06;13.50;99.90
22984;DHT22;11658;48.908;9.140;2024-02-14T12:50:34;13.50;99.90
22984;DHT22;11658;48.908;9.140;2024-02-14T12:53:00;13.60;99.90
22984;DHT22;11658;48.908;9.140;2024-02-14T12:55:26;13.70;99.90
22984;DHT22;11658;48.908;9.140;2024-02-14T12:57:57;13.70;99.90
22984;DHT22;11658;48.908;9.140;2024-02-14T13:00:23;13.50;99.90
22984;DHT22;11658;48.908;9.140;2024-02-14T13:02:49;13.70;99.90
22984;DHT22;11658;48.908;9.140;2024-02-14T13:05:15;13.70;99.90
22984;DHT22;11658;48.908;9.140;2024-02-14T13:07:42;13.70;99.90
22984;DHT22;11658;48.908;9.140;2024-02-14T13:10:08;13.70;99.90
22984;DHT22;11658;48.908;9.140;2024-02-14T13:12:36;13.70;99.90
22984;DHT22;11658;48.908;9.140;2024-02-14T13:15:02;13.70;99.90
22984;DHT22;11658;48.908;9.140;2024-02-14T13:17:28;13.70;99.90
22984;DHT22;11658;48.908;9.140;2024-02-14T13:19:54;13.70;99.90
22984;DHT22;11658;48.908;9.140;2024-02-14T13:22:20;13.50;99.90
22984;DHT22;11658;48.908;9.140;2024-02-14T13:24:46;13.50;99.90
22984;DHT22;11658;48.908;9.140;2024-02-14T13:27:11;13.50;99.90
22984;DHT22;11658;48.908;9.140;2024-02-14T13:29:37;13.60;99.90
22984;DHT22;11658;48.908;9.140;2024-02-14T13:32:03;13.60;99.90
22984;DHT22;11658;48.908;9.140;2024-02-14T13:34:33;13.60;99.90
22984;DHT22;11658;48.908;9.140;2024-02-14T13:36:59;13.70;99.90
22984;DHT22;11658;48.908;9.140;2024-02-14T13:39:24;13.50;99.90
22984;DHT22;11658;48.908;9.140;2024-02-14T13:41:50;13.50;99.90
22984;DHT22;11658;48.908;9.140;2024-02-14T13:44:16;13.50;99.90
22984;DHT22;11658;48.908;9.140;2024-02-14T13:46:45;13.50;99.90
22984;DHT22;11658;48.908;9.140;2024-02-14T13:49:16;13.50;99.90
22984;DHT22;11658;48.908;9.140;2024-02-14T13:51:50;13.60;99.90
22984;DHT22;11658;48.908;9.140;2024-02-14T13:54:17;13.60;99.90
22984;DHT22;11658;48.908;9.140;2024-02-14T13:56:43;13.70;99.90
22984;DHT22;11658;48.908;9.140;2024-02-14T13:59:08;13.80;99.90
22984;DHT22;11658;48.908;9.140;2024-02-14T14:01:34;13.80;99.90
22984;DHT22;11658;48.908;9.140;2024-02-14T14:04:00;14.00;99.90
22984;DHT22;11658;48.908;9.140;2024-02-14T14:06:25;14.10;99.90
22984;DHT22;11658;48.908;9.140;2024-02-14T14:08:51;14.20;99.90
22984;DHT22;11658;48.908;9.140;2024-02-14T14:11:17;14.10;99.90
22984;DHT22;11658;48.908;9.140;2024-02-14T14:13:42;13.90;99.90
22984;DHT22;11658;48.908;9.140;2024-02-14T14:16:08;13.70;99.90
22984;DHT22;11658;48.908;9.140;2024-02-14T14:18:35;13.70;99.90
22984;DHT22;11658;48.908;9.140;2024-02-14T14:21:01;13.70;99.90
22984;DHT22;11658;48.908;9.140;2024-02-14T14:23:26;13.70;99.90
22984;DHT22;11658;48.908;9.140;2024-02-14T14:25:52;13.70;99.90
22984;DHT22;11658;48.908;9.140;2024-02-14T14:28:18;13.80;99.90
22984;DHT22;11658;48.908;9.140;2024-02-14T14:30:53;13.80;99.90
22984;DHT22;11658;48.908;9.140;2024-02-14T14:33:20;13.90;99.90
22984;DHT22;11658;48.908;9.140;2024-02-14T14:35:45;13.90;99.90
22984;DHT22;11658;48.908;9.140;2024-02-14T14:38:11;13.80;99.90
22984;DHT22;11658;48.908;9.140;2024-02-14T14:40:37;13.60;99.90
22984;DHT22;11658;48.908;9.140;2024-02-14T14:43:06;13.70;99.90
22984;DHT22;11658;48.908;9.140;2024-02-14T14:45:33;13.60;99.90
22984;DHT22;11658;48.908;9.140;2024-02-14T14:47:58;13.60;99.90
22984;DHT22;11658;48.908;9.140;2024-02-14T14:50:24;13.60;99.90
22984;DHT22;11658;48.908;9.140;2024-02-14T14:52:53;13.70;99.90
22984;DHT22;11658;48.908;9.140;2024-02-14T14:55:19;13.50;99.90
22984;DHT22;11658;48.908;9.140;2024-02-14T14:57:44;13.40;99.90
22984;DHT22;11658;48.908;9.140;2024-02-14T15:00:11;13.40;99.90
22984;DHT22;11658;48.908;9.140;2024-02-14T15:02:40;13.50;99.90
22984;DHT22;11658;48.908;9.140;2024-02-14T15:05:11;13.60;99.90
22984;DHT22;11658;48.908;9.140;2024-02-14T15:07:40;13.80;99.90
22984;DHT22;11658;48.908;9.140;2024-02-14T15:10:07;13.90;99.90
22984;DHT22;11658;48.908;9.140;2024-02-14T15:12:36;13.70;99.90
22984;DHT22;11658;48.908;9.140;2024-02-14T15:15:05;13.50;99.90
22984;DHT22;11658;48.908;9.140;2024-02-14T15:17:31;13.50;99.90
22984;DHT22;11658;48.908;9.140;2024-02-14T15:19:57;13.60;99.90
22984;DHT22;11658;48.908;9.140;2024-02-14T15:22:23;13.70;99.90
22984;DHT22;11658;48.908;9.140;2024-02-14T15:24:54;13.70;99.90
22984;DHT22;11658;48.908;9.140;2024-02-14T15:27:20;13.80;99.90
22984;DHT22;11658;48.908;9.140;2024-02-14T15:29:51;13.90;99.90
22984;DHT22;11658;48.908;9.140;2024-02-14T15:32:35;13.80;99.90
22984;DHT22;11658;48.908;9.140;2024-02-14T15:35:20;13.90;99.90
22984;DHT22;11658;48.908;9.140;2024-02-14T15:37:45;13.90;99.90
22984;DHT22;11658;48.908;9.140;2024-02-14T15:40:17;13.70;99.90
22984;DHT22;11658;48.908;9.140;2024-02-14T15:42:43;13.60;99.90
22984;DHT22;11658;48.908;9.140;2024-02-14T15:45:09;13.70;99.90
22984;DHT22;11658;48.908;9.140;2024-02-14T15:47:44;13.60;99.90
22984;DHT22;11658;48.908;9.140;2024-02-14T15:50:10;13.60;99.90
22984;DHT22;11658;48.908;9.140;2024-02-14T15:52:37;13.40;99.90
22984;DHT22;11658;48.908;9.140;2024-02-14T15:55:06;13.20;99.90
22984;DHT22;11658;48.908;9.140;2024-02-14T15:57:36;13.20;99.90
22984;DHT22;11658;48.908;9.140;2024-02-14T16:00:03;13.20;99.90
22984;DHT22;11658;48.908;9.140;2024-02-14T16:02:38;13.20;99.90
22984;DHT22;11658;48.908;9.140;2024-02-14T16:05:03;12.90;99.90
22984;DHT22;11658;48.908;9.140;2024-02-14T16:07:29;12.90;99.90
22984;DHT22;11658;48.908;9.140;2024-02-14T16:09:55;12.80;99.90
22984;DHT22;11658;48.908;9.140;2024-02-14T16:12:21;12.80;99.90
22984;DHT22;11658;48.908;9.140;2024-02-14T16:14:46;12.70;99.90
22984;DHT22;11658;48.908;9.140;2024-02-14T16:17:12;12.70;99.90
22984;DHT22;11658;48.908;9.140;2024-02-14T16:19:38;12.70;99.90
22984;DHT22;11658;48.908;9.140;2024-02-14T16:22:04;12.70;99.90
22984;DHT22;11658;48.908;9.140;2024-02-14T16:24:30;12.80;99.90
22984;DHT22;11658;48.908;9.140;2024-02-14T16:26:57;12.80;99.90
22984;DHT22;11658;48.908;9.140;2024-02-14T16:29:22;12.90;99.90
22984;DHT22;11658;48.908;9.140;2024-02-14T16:31:48;12.90;99.90
22984;DHT22;11658;48.908;9.140;2024-02-14T16:34:13;12.80;99.90
22984;DHT22;11658;48.908;9.140;2024-02-14T16:36:39;12.80;99.90
22984;DHT22;11658;48.908;9.140;2024-02-14T16:39:05;12.80;99.90
22984;DHT22;11658;48.908;9.140;2024-02-14T16:41:31;12.80;99.90
22984;DHT22;11658;48.908;9.140;2024-02-14T16:43:57;12.70;99.90
22984;DHT22;11658;48.908;9.140;2024-02-14T16:46:23;12.50;99.90
22984;DHT22;11658;48.908;9.140;2024-02-14T16:48:49;12.50;99.90
22984;DHT22;11658;48.908;9.140;2024-02-14T16:51:14;12.40;99.90
22984;DHT22;11658;48.908;9.140;2024-02-14T16:53:42;12.40;99.90
22984;DHT22;11658;48.908;9.140;2024-02-14T16:56:08;12.50;99.90
22984;DHT22;11658;48.908;9.140;2024-02-14T16:58:34;12.40;99.90
22984;DHT22;11658;48.908;9.140;2024-02-14T17:01:00;12.30;99.90
22984;DHT22;11658;48.908;9.140;2024-02-14T17:03:25;12.40;99.90
22984;DHT22;11658;48.908;9.140;2024-02-14T17:05:52;12.30;99.90
22984;DHT22;11658;48.908;9.140;2024-02-14T17:08:18;12.30;99.90
22984;DHT22;11658;48.908;9.140;2024-02-14T17:10:44;12.30;99.90
22984;DHT22;11658;48.908;9.140;2024-02-14T17:13:10;12.30;99.90
22984;DHT22;11658;48.908;9.140;2024-02-14T17:15:35;12.30;99.90
22984;DHT22;11658;48.908;9.140;2024-02-14T17:18:01;12.40;99.90
22984;DHT22;11658;48.908;9.140;2024-02-14T17:20:27;12.40;99.90
22984;DHT22;11658;48.908;9.140;2024-02-14T17:22:52;12.40;99.90
22984;DHT22;11658;48.908;9.140;2024-02-14T17:25:18;12.50;99.90
22984;DHT22;11658;48.908;9.140;2024-02-14T17:27:44;12.30;99.90
22984;DHT22;11658;48.908;9.140;2024-02-14T17:30:10;12.20;99.90
22984;DHT22;11658;48.908;9.140;2024-02-14T17:32:35;12.30;99.90
22984;DHT22;11658;48.908;9.140;2024-02-14T17:35:01;12.20;99.90
22984;DHT22;11658;48.908;9.140;2024-02-14T17:37:26;12.20;99.90
22984;DHT22;11658;48.908;9.140;2024-02-14T17:39:52;12.10;99.90
22984;DHT22;11658;48.908;9.140;2024-02-14T17:42:18;12.10;99.90
22984;DHT22;11658;48.908;9.140;2024-02-14T17:44:43;12.20;99.90
22984;DHT22;11658;48.908;9.140;2024-02-14T17:47:09;12.20;99.90
22984;DHT22;11658;48.908;9.140;2024-02-14T17:49:34;12.30;99.90
22984;DHT22;11658;48.908;9.140;2024-02-14T17:52:00;12.30;99.90
22984;DHT22;11658;48.908;9.140;2024-02-14T17:54:26;12.20;99.90
22984;DHT22;11658;48.908;9.140;2024-02-14T17:56:52;12.30;99.90
22984;DHT22;11658;48.908;9.140;2024-02-14T17:59:18;12.30;99.90
22984;DHT22;11658;48.908;9.140;2024-02-14T18:01:44;12.20;99.90
22984;DHT22;11658;48.908;9.140;2024-02-14T18:04:10;12.20;99.90
22984;DHT22;11658;48.908;9.140;2024-02-14T18:06:36;12.20;99.90
22984;DHT22;11658;48.908;9.140;2024-02-14T18:09:02;12.10;99.90
22984;DHT22;11658;48.908;9.140;2024-02-14T18:11:28;12.10;99.90
22984;DHT22;11658;48.908;9.140;2024-02-14T18:13:53;12.10;99.90
22984;DHT22;11658;48.908;9.140;2024-02-14T18:16:19;12.10;99.90
22984;DHT22;11658;48.908;9.140;2024-02-14T18:18:46;12.00;99.90
22984;DHT22;11658;48.908;9.140;2024-02-14T18:21:12;12.00;99.90
22984;DHT22;11658;48.908;9.140;2024-02-14T18:23:38;12.00;99.90
22984;DHT22;11658;48.908;9.140;2024-02-14T18:26:04;12.10;99.90
22984;DHT22;11658;48.908;9.140;2024-02-14T18:28:30;12.10;99.90
22984;DHT22;11658;48.908;9.140;2024-02-14T18:30:59;12.10;99.90
22984;DHT22;11658;48.908;9.140;2024-02-14T18:33:25;12.10;99.90
22984;DHT22;11658;48.908;9.140;2024-02-14T18:35:51;12.10;99.90
22984;DHT22;11658;48.908;9.140;2024-02-14T18:38:16;12.10;99.90
22984;DHT22;11658;48.908;9.140;2024-02-14T18:40:44;12.00;99.90
22984;DHT22;11658;48.908;9.140;2024-02-14T18:43:10;11.80;99.90
22984;DHT22;11658;48.908;9.140;2024-02-14T18:45:37;12.00;99.90
22984;DHT22;11658;48.908;9.140;2024-02-14T18:48:03;12.00;99.90
22984;DHT22;11658;48.908;9.140;2024-02-14T18:50:30;11.90;99.90
22984;DHT22;11658;48.908;9.140;2024-02-14T18:52:55;11.90;99.90
22984;DHT22;11658;48.908;9.140;2024-02-14T18:55:21;11.90;99.90
22984;DHT22;11658;48.908;9.140;2024-02-14T18:57:47;11.80;99.90
22984;DHT22;11658;48.908;9.140;2024-02-14T19:00:13;11.90;99.90
22984;DHT22;11658;48.908;9.140;2024-02-14T19:02:38;11.80;99.90
22984;DHT22;11658;48.908;9.140;2024-02-14T19:05:05;11.90;99.90
22984;DHT22;11658;48.908;9.140;2024-02-14T19:07:35;11.90;99.90
22984;DHT22;11658;48.908;9.140;2024-02-14T19:10:00;11.90;99.90
22984;DHT22;11658;48.908;9.140;2024-02-14T19:12:26;11.90;99.90
22984;DHT22;11658;48.908;9.140;2024-02-14T19:14:52;11.90;99.90
22984;DHT22;11658;48.908;9.140;2024-02-14T19:17:19;12.00;99.90
22984;DHT22;11658;48.908;9.140;2024-02-14T19:19:45;12.00;99.90
22984;DHT22;11658;48.908;9.140;2024-02-14T19:22:10;12.10;99.90
22984;DHT22;11658;48.908;9.140;2024-02-14T19:24:37;12.10;99.90
22984;DHT22;11658;48.908;9.140;2024-02-14T19:27:03;12.10;99.90
22984;DHT22;11658;48.908;9.140;2024-02-14T19:29:29;12.10;99.90
22984;DHT22;11658;48.908;9.140;2024-02-14T19:31:54;12.10;99.90
22984;DHT22;11658;48.908;9.140;2024-02-14T19:34:20;12.10;99.90
22984;DHT22;11658;48.908;9.140;2024-02-14T19:36:45;12.00;99.90
22984;DHT22;11658;48.908;9.140;2024-02-14T19:39:11;12.00;99.90
22984;DHT22;11658;48.908;9.140;2024-02-14T19:41:40;12.00;99.90
22984;DHT22;11658;48.908;9.140;2024-02-14T19:44:05;11.90;99.90
22984;DHT22;11658;48.908;9.140;2024-02-14T19:46:31;11.90;99.90
22984;DHT22;11658;48.908;9.140;2024-02-14T19:48:56;11.90;99.90
22984;DHT22;11658;48.908;9.140;2024-02-14T19:51:22;11.80;99.90
22984;DHT22;11658;48.908;9.140;2024-02-14T19:53:48;11.80;99.90
22984;DHT22;11658;48.908;9.140;2024-02-14T19:56:14;11.80;99.90
22984;DHT22;11658;48.908;9.140;2024-02-14T19:58:40;11.80;99.90
22984;DHT22;11658;48.908;9.140;2024-02-14T20:01:06;11.80;99.90
22984;DHT22;11658;48.908;9.140;2024-02-14T20:03:35;11.70;99.90
22984;DHT22;11658;48.908;9.140;2024-02-14T20:06:03;11.70;99.90
22984;DHT22;11658;48.908;9.140;2024-02-14T20:08:30;11.60;99.90
22984;DHT22;11658;48.908;9.140;2024-02-14T20:10:56;11.50;99.90
22984;DHT22;11658;48.908;9.140;2024-02-14T20:13:23;11.40;99.90
22984;DHT22;11658;48.908;9.140;2024-02-14T20:15:50;11.40;99.90
22984;DHT22;11658;48.908;9.140;2024-02-14T20:18:16;11.30;99.90
22984;DHT22;11658;48.908;9.140;2024-02-14T20:20:41;11.30;99.90
22984;DHT22;11658;48.908;9.140;2024-02-14T20:23:07;11.20;99.90
22984;DHT22;11658;48.908;9.140;2024-02-14T20:25:32;11.20;99.90
22984;DHT22;11658;48.908;9.140;2024-02-14T20:27:58;11.10;99.90
22984;DHT22;11658;48.908;9.140;2024-02-14T20:30:24;11.10;99.90
22984;DHT22;11658;48.908;9.140;2024-02-14T20:32:54;11.00;99.90
22984;DHT22;11658;48.908;9.140;2024-02-14T20:35:19;10.90;99.90